Time;durP1;ratioP1;P1;durP2;ratioP2;P2;SDS_P1;SDS_P2;PMS_P1;PMS_P2;Temp;Humidity;BMP_temperature;BMP_pressure;BME280_temperature;BME280_humidity;BME280_pressure;Samples;Min_cycle;Max_cycle;Signal;HPM_P1;HPM_P2
2023/03/18 00:02:48;;;;;;;24.10;12.40;;;;;;;5.89;43.99;99300.67;223262;184;146787;-72
2023/03/18 00:07:51;;;;;;;22.40;11.80;;;;;;;5.86;43.96;99292.88;223219;184;138458;-73
2023/03/18 00:12:55;;;;;;;23.10;12.90;;;;;;;5.79;44.17;99286.79;220915;184;138541;-72
2023/03/18 00:17:58;;;;;;;26.50;13.20;;;;;;;5.71;44.32;99289.55;223350;184;145372;-72
2023/03/18 00:23:02;;;;;;;26.50;13.20;;;;;;;5.63;44.73;99285.11;223560;184;139624;-73
2023/03/18 00:28:06;;;;;;;28.00;12.70;;;;;;;5.56;44.98;99285.38;223489;184;137156;-72
2023/03/18 00:33:11;;;;;;;21.90;11.70;;;;;;;5.51;45.17;99286.28;223361;184;145768;-73
2023/03/18 00:38:19;;;;;;;22.10;11.60;;;;;;;5.45;45.43;99284.91;223387;184;138690;-73
2023/03/18 00:43:28;;;;;;;22.60;11.60;;;;;;;5.37;45.56;99282.56;222786;185;136675;-73
2023/03/18 00:48:31;;;;;;;22.50;11.20;;;;;;;5.33;45.65;99279.73;223467;184;146746;-73
2023/03/18 00:53:34;;;;;;;20.80;10.90;;;;;;;5.30;45.81;99278.62;222913;180;139437;-72
2023/03/18 00:58:39;;;;;;;20.50;10.60;;;;;;;5.28;45.65;99268.66;223463;184;139410;-71
2023/03/18 01:03:45;;;;;;;20.10;10.10;;;;;;;5.28;45.62;99267.09;223441;184;145915;-71
2023/03/18 01:08:52;;;;;;;22.90;10.60;;;;;;;5.27;45.77;99264.67;223406;184;139026;-71
2023/03/18 01:13:56;;;;;;;19.90;10.20;;;;;;;5.24;46.00;99263.17;223488;184;136444;-71
2023/03/18 01:18:59;;;;;;;21.00;10.30;;;;;;;5.22;45.94;99258.16;223467;184;146365;-71
2023/03/18 01:24:03;;;;;;;18.40;9.90;;;;;;;5.18;45.93;99252.29;223437;184;138852;-71
2023/03/18 01:29:08;;;;;;;20.60;10.00;;;;;;;5.16;46.02;99248.71;223484;185;136062;-72
2023/03/18 01:34:12;;;;;;;18.90;10.40;;;;;;;5.13;45.97;99244.61;223311;184;145545;-72
2023/03/18 01:39:22;;;;;;;22.00;10.70;;;;;;;5.09;46.27;99240.50;223295;184;139385;-72
2023/03/18 01:44:26;;;;;;;20.60;9.90;;;;;;;5.06;46.38;99240.11;223446;184;137056;-72
2023/03/18 01:49:38;;;;;;;19.70;10.50;;;;;;;5.02;46.47;99234.61;223456;184;146249;-73
2023/03/18 01:54:48;;;;;;;18.60;9.50;;;;;;;4.99;46.32;99235.08;223446;184;138542;-73
2023/03/18 01:59:54;;;;;;;17.40;9.30;;;;;;;4.94;46.60;99233.29;223461;184;137481;-74
2023/03/18 02:05:02;;;;;;;20.50;9.50;;;;;;;4.92;46.67;99236.90;223619;184;147347;-73
2023/03/18 02:10:12;;;;;;;15.90;8.90;;;;;;;4.88;46.82;99238.99;223463;184;138752;-73
2023/03/18 02:15:21;;;;;;;19.40;9.30;;;;;;;4.84;47.03;99237.70;223519;184;136999;-72
2023/03/18 02:20:45;;;;;;;17.10;9.80;;;;;;;4.80;47.05;99232.23;223378;184;147357;-73
2023/03/18 02:26:19;;;;;;;18.80;9.70;;;;;;;4.76;47.33;99227.13;223525;184;138096;-74
2023/03/18 02:31:23;;;;;;;17.90;9.00;;;;;;;4.66;47.67;99223.92;223604;184;137782;-71
2023/03/18 02:36:30;;;;;;;17.90;8.80;;;;;;;4.61;47.59;99222.55;223524;184;147179;-71
2023/03/18 02:41:36;;;;;;;18.50;9.20;;;;;;;4.55;47.81;99220.09;223396;184;138601;-71
2023/03/18 02:46:45;;;;;;;19.80;9.30;;;;;;;4.51;47.85;99218.66;223580;184;137413;-72
2023/03/18 02:51:54;;;;;;;17.70;9.10;;;;;;;4.45;48.10;99226.44;223192;184;146848;-71
2023/03/18 02:56:57;;;;;;;17.90;8.60;;;;;;;4.37;48.24;99226.18;223204;184;139330;-71
2023/03/18 03:02:01;;;;;;;18.80;8.80;;;;;;;4.29;48.85;99221.71;223434;184;138593;-72
2023/03/18 03:07:05;;;;;;;19.10;8.90;;;;;;;4.22;49.04;99215.95;223549;184;147093;-72
2023/03/18 03:12:13;;;;;;;18.20;8.40;;;;;;;4.20;48.96;99219.52;223509;184;138647;-72
2023/03/18 03:17:20;;;;;;;17.50;8.40;;;;;;;4.18;49.09;99222.94;223448;184;136908;-73
2023/03/18 03:22:26;;;;;;;15.10;7.90;;;;;;;4.13;49.26;99215.54;223536;184;147085;-71
2023/03/18 03:27:29;;;;;;;14.20;8.20;;;;;;;4.11;49.46;99217.38;223533;184;139036;-71
2023/03/18 03:32:33;;;;;;;17.60;8.50;;;;;;;4.12;49.57;99220.02;223498;184;137118;-71
2023/03/18 03:37:36;;;;;;;14.50;7.80;;;;;;;4.13;49.41;99220.65;223530;184;147368;-73
2023/03/18 03:42:40;;;;;;;15.20;8.60;;;;;;;4.10;49.62;99219.18;223484;184;138303;-73
2023/03/18 03:47:45;;;;;;;20.40;9.20;;;;;;;4.06;49.82;99222.13;223435;184;136330;-72
2023/03/18 03:52:51;;;;;;;17.70;8.70;;;;;;;4.04;49.92;99221.11;223681;184;147222;-74
2023/03/18 03:57:55;;;;;;;19.20;8.90;;;;;;;4.01;49.99;99219.46;223372;184;138600;-73
2023/03/18 04:02:59;;;;;;;75.20;41.10;;;;;;;4.05;50.57;99224.25;223450;184;136390;-73
2023/03/18 04:08:03;;;;;;;21.10;11.70;;;;;;;4.06;50.15;99224.05;222267;184;147056;-74
2023/03/18 04:13:10;;;;;;;38.90;23.10;;;;;;;4.06;50.09;99222.47;221331;184;138940;-72
2023/03/18 04:18:15;;;;;;;20.00;10.10;;;;;;;4.10;50.61;99220.40;223385;184;137170;-72
2023/03/18 04:23:19;;;;;;;18.80;10.00;;;;;;;4.09;49.97;99225.55;223403;184;147055;-73
2023/03/18 04:28:23;;;;;;;18.20;9.30;;;;;;;4.06;49.86;99231.77;223538;184;140836;-73
2023/03/18 04:33:27;;;;;;;16.70;9.10;;;;;;;4.03;50.04;99234.30;223414;184;136297;-74
2023/03/18 04:38:31;;;;;;;18.10;9.30;;;;;;;4.00;50.02;99239.52;223488;184;147344;-74
2023/03/18 04:43:34;;;;;;;42.40;23.60;;;;;;;3.98;50.83;99240.98;223475;184;138536;-73
2023/03/18 04:48:40;;;;;;;16.10;9.60;;;;;;;4.03;50.67;99244.50;223510;184;136337;-74
2023/03/18 04:53:44;;;;;;;16.80;8.50;;;;;;;4.01;50.42;99248.24;223464;184;147668;-74
2023/03/18 04:58:48;;;;;;;16.20;8.30;;;;;;;3.96;50.60;99251.41;223579;184;139261;-74
2023/03/18 05:03:55;;;;;;;15.50;8.20;;;;;;;3.95;50.37;99254.05;223484;184;137127;-74
2023/03/18 05:09:05;;;;;;;20.00;8.30;;;;;;;3.94;50.47;99252.33;223462;184;147413;-73
2023/03/18 05:14:09;;;;;;;19.30;10.70;;;;;;;4.01;51.15;99247.71;223508;184;138895;-73
2023/03/18 05:19:18;;;;;;;16.80;8.00;;;;;;;4.05;50.74;99244.10;223097;184;137098;-75
2023/03/18 05:24:28;;;;;;;14.20;7.50;;;;;;;4.04;50.70;99252.54;223481;184;147913;-72
2023/03/18 05:29:32;;;;;;;19.10;7.90;;;;;;;4.05;50.69;99254.12;223382;184;138588;-72
2023/03/18 05:34:56;;;;;;;16.20;7.90;;;;;;;4.07;50.48;99256.16;223675;184;136587;-72
2023/03/18 05:40:03;;;;;;;16.50;7.70;;;;;;;4.11;50.60;99260.23;223523;184;149079;-72
2023/03/18 05:45:07;;;;;;;12.70;7.70;;;;;;;4.12;50.50;99265.11;223516;184;138294;-73
2023/03/18 05:50:13;;;;;;;15.80;8.10;;;;;;;4.13;50.71;99260.86;223476;184;136217;-73
2023/03/18 05:55:17;;;;;;;16.30;8.20;;;;;;;4.15;50.60;99253.25;223496;184;147401;-73
2023/03/18 06:00:20;;;;;;;13.40;7.40;;;;;;;4.19;50.44;99251.86;223001;184;138874;-75
2023/03/18 06:05:26;;;;;;;12.40;7.80;;;;;;;4.26;50.18;99250.59;223522;184;137282;-73
2023/03/18 06:10:30;;;;;;;15.50;8.20;;;;;;;4.34;50.30;99246.66;223480;184;147107;-73
2023/03/18 06:15:33;;;;;;;17.10;8.50;;;;;;;4.42;50.13;99247.06;223615;184;138648;-73
2023/03/18 06:20:37;;;;;;;15.50;8.50;;;;;;;4.51;50.03;99251.35;223501;184;137504;-73
2023/03/18 06:25:42;;;;;;;16.10;8.30;;;;;;;4.58;50.25;99252.69;223399;184;147578;-73
2023/03/18 06:30:45;;;;;;;14.20;7.90;;;;;;;4.67;50.15;99258.73;223374;184;140382;-73
2023/03/18 06:35:49;;;;;;;15.30;8.10;;;;;;;4.79;50.15;99265.33;223513;184;136249;-73
2023/03/18 06:40:53;;;;;;;15.40;8.20;;;;;;;4.89;49.79;99263.91;223539;184;146825;-73
2023/03/18 06:45:58;;;;;;;16.10;8.50;;;;;;;5.00;49.97;99270.20;223517;184;138305;-73
2023/03/18 06:51:02;;;;;;;15.80;9.20;;;;;;;5.13;49.83;99272.72;222662;184;137509;-75
2023/03/18 06:56:12;;;;;;;14.90;8.60;;;;;;;5.30;49.85;99272.82;223621;184;147450;-75
2023/03/18 07:01:25;;;;;;;17.20;8.80;;;;;;;5.45;49.80;99271.02;223434;184;139548;-75
2023/03/18 07:06:29;;;;;;;15.10;8.10;;;;;;;5.61;49.48;99271.66;223491;184;136424;-75
2023/03/18 07:11:33;;;;;;;12.20;6.90;;;;;;;5.78;49.00;99268.70;221914;184;147028;-74
2023/03/18 07:16:40;;;;;;;15.30;7.40;;;;;;;5.95;48.36;99271.59;222497;184;138139;-73
2023/03/18 07:21:45;;;;;;;15.10;8.10;;;;;;;6.15;47.51;99279.77;223451;184;136800;-73
2023/03/18 07:26:52;;;;;;;14.40;7.80;;;;;;;6.33;47.46;99278.86;223673;182;148224;-73
2023/03/18 07:31:56;;;;;;;15.00;7.70;;;;;;;6.49;47.01;99283.85;223667;182;139544;-73
2023/03/18 07:36:59;;;;;;;19.40;8.60;;;;;;;6.63;46.62;99278.52;223856;182;138864;-73
2023/03/18 07:42:03;;;;;;;15.10;8.00;;;;;;;6.80;46.66;99286.25;223692;182;146971;-74
2023/03/18 07:47:08;;;;;;;14.40;8.40;;;;;;;6.98;46.35;99287.09;223689;182;138887;-74
2023/03/18 07:52:12;;;;;;;15.10;7.90;;;;;;;7.17;46.02;99288.89;223633;183;136508;-74
2023/03/18 07:57:15;;;;;;;14.80;8.50;;;;;;;7.34;46.12;99287.60;223645;183;147908;-74
2023/03/18 08:02:20;;;;;;;16.80;8.60;;;;;;;7.53;46.19;99285.48;223671;182;138905;-74
2023/03/18 08:07:24;;;;;;;18.50;8.60;;;;;;;7.72;45.69;99289.23;223664;183;136955;-74
2023/03/18 08:12:29;;;;;;;17.80;8.20;;;;;;;7.87;45.57;99292.95;223650;182;147161;-75
2023/03/18 08:17:53;;;;;;;22.10;8.40;;;;;;;8.05;44.83;99290.14;223720;182;139483;-75
2023/03/18 08:22:56;;;;;;;18.10;9.30;;;;;;;8.22;44.45;99291.98;223807;182;136591;-74
2023/03/18 08:27:59;;;;;;;21.10;9.90;;;;;;;8.41;44.33;99291.27;223554;182;147357;-74
2023/03/18 08:33:03;;;;;;;22.20;9.50;;;;;;;8.59;43.88;99289.83;223727;182;138513;-74
2023/03/18 08:38:06;;;;;;;18.30;9.30;;;;;;;8.76;43.33;99293.42;223591;182;137781;-74
2023/03/18 08:43:13;;;;;;;19.10;9.40;;;;;;;8.92;43.04;99291.36;222802;183;147372;-77
2023/03/18 08:48:17;;;;;;;19.00;9.00;;;;;;;9.10;42.18;99293.77;223190;182;138562;-73
2023/03/18 08:53:20;;;;;;;18.00;9.00;;;;;;;9.29;41.24;99292.77;223607;182;136376;-74
2023/03/18 08:58:23;;;;;;;21.70;8.80;;;;;;;9.49;41.47;99291.57;223783;183;147099;-73
2023/03/18 09:09:52;;;;;;;18.30;8.00;;;;;;;9.91;39.10;99282.02;223635;182;136450;-73
2023/03/18 09:14:56;;;;;;;17.50;7.40;;;;;;;10.08;39.07;99284.05;223694;182;147180;-73
2023/03/18 09:20:00;;;;;;;15.40;7.60;;;;;;;10.31;38.04;99278.15;223596;182;138117;-73
2023/03/18 09:25:04;;;;;;;13.80;7.20;;;;;;;10.54;37.34;99272.96;223564;182;137155;-73
2023/03/18 09:30:08;;;;;;;13.50;6.90;;;;;;;10.80;36.71;99271.98;222902;182;147122;-75
2023/03/18 09:35:13;;;;;;;18.70;7.50;;;;;;;11.02;36.22;99270.30;223644;183;138268;-75
2023/03/18 09:40:26;;;;;;;15.20;7.70;;;;;;;11.25;35.81;99265.70;223669;183;137360;-75
2023/03/18 09:46:03;;;;;;;13.20;7.30;;;;;;;11.42;35.33;99261.98;222881;182;147692;-75
2023/03/18 09:51:21;;;;;;;12.30;6.20;;;;;;;11.57;34.63;99259.81;223655;182;138909;-75
2023/03/18 09:56:29;;;;;;;14.00;6.20;;;;;;;11.76;34.32;99252.06;223663;183;136715;-75
2023/03/18 10:01:36;;;;;;;10.60;6.10;;;;;;;11.92;33.63;99250.69;223607;182;146805;-74
2023/03/18 10:06:43;;;;;;;11.90;5.90;;;;;;;12.17;33.75;99249.27;223678;182;138396;-74
2023/03/18 10:11:49;;;;;;;10.90;5.40;;;;;;;12.46;33.29;99241.66;223615;182;136761;-76
2023/03/18 10:17:19;;;;;;;11.60;5.50;;;;;;;12.62;33.35;99242.38;223709;183;147583;-75
2023/03/18 10:22:36;;;;;;;11.40;5.50;;;;;;;12.76;33.04;99235.92;223664;183;138741;-75
2023/03/18 10:27:56;;;;;;;11.40;5.20;;;;;;;12.98;32.47;99234.55;223786;183;137985;-75
2023/03/18 10:33:21;;;;;;;9.70;5.30;;;;;;;13.20;31.86;99227.73;223737;182;146860;-75
2023/03/18 10:38:32;;;;;;;13.10;6.00;;;;;;;13.43;32.21;99220.08;223675;182;138947;-75
2023/03/18 10:43:35;;;;;;;9.20;5.20;;;;;;;13.66;32.19;99216.62;223791;182;137982;-75
2023/03/18 10:48:46;;;;;;;11.50;6.70;;;;;;;13.87;30.48;99214.41;223738;179;147707;-75
2023/03/18 10:53:56;;;;;;;14.20;6.70;;;;;;;14.14;30.36;99212.06;223720;182;139418;-74
2023/03/18 10:59:00;;;;;;;14.50;7.00;;;;;;;14.33;30.88;99201.35;223586;182;136859;-74
2023/03/18 11:04:05;;;;;;;12.30;7.40;;;;;;;14.45;30.92;99199.23;223691;183;146430;-75
2023/03/18 11:09:12;;;;;;;13.40;7.30;;;;;;;14.52;31.42;99202.67;223589;183;138664;-75
2023/03/18 11:14:21;;;;;;;12.90;7.30;;;;;;;14.61;32.32;99199.61;223625;183;137218;-74
2023/03/18 11:19:44;;;;;;;13.30;7.10;;;;;;;14.70;31.38;99193.42;223610;183;147460;-73
2023/03/18 11:25:18;;;;;;;15.50;7.80;;;;;;;14.78;31.49;99187.48;223619;182;138945;-75
2023/03/18 11:30:28;;;;;;;14.30;8.00;;;;;;;14.89;31.29;99181.05;223612;182;137182;-73
2023/03/18 11:35:48;;;;;;;13.00;6.80;;;;;;;15.06;31.37;99174.58;223739;183;147185;-72
2023/03/18 11:40:52;;;;;;;10.70;6.00;;;;;;;15.17;31.01;99172.63;223631;182;139345;-73
2023/03/18 11:45:59;;;;;;;11.80;6.40;;;;;;;15.25;30.22;99164.69;223628;183;136637;-73
2023/03/18 11:51:44;;;;;;;14.30;6.50;;;;;;;15.41;30.33;99154.25;223482;182;147231;-72
2023/03/18 11:56:57;;;;;;;139.20;96.30;;;;;;;15.74;30.38;99159.27;223593;183;138947;-71
2023/03/18 12:02:01;;;;;;;50.70;32.70;;;;;;;16.11;31.87;99152.85;223581;183;137075;-66
2023/03/18 12:07:16;;;;;;;19.10;12.10;;;;;;;17.28;34.49;99141.23;223699;182;147637;-66
2023/03/18 12:12:23;;;;;;;13.90;7.20;;;;;;;18.30;31.68;99130.16;223685;182;139017;-66
2023/03/18 12:17:42;;;;;;;11.50;6.40;;;;;;;18.89;30.32;99122.09;223631;182;137450;-66
2023/03/18 12:23:10;;;;;;;12.40;6.70;;;;;;;19.31;28.55;99115.02;223679;183;147683;-67
2023/03/18 12:28:27;;;;;;;12.60;6.50;;;;;;;19.45;27.96;99115.80;223692;182;139370;-66
2023/03/18 12:33:43;;;;;;;8.00;5.00;;;;;;;19.47;27.81;99114.54;223667;182;137355;-66
2023/03/18 12:39:44;;;;;;;8.60;5.40;;;;;;;19.48;28.10;99114.44;223604;182;147670;-67
2023/03/18 12:44:58;;;;;;;85.70;65.80;;;;;;;19.66;28.10;99107.95;223228;185;138440;-66
2023/03/18 12:50:04;;;;;;;17.40;11.30;;;;;;;19.82;27.32;99099.80;223649;183;137160;-70
2023/03/18 12:55:15;;;;;;;16.10;11.70;;;;;;;19.88;26.25;99098.98;223550;182;147552;-70
2023/03/18 13:00:18;;;;;;;14.40;10.10;;;;;;;20.02;26.55;99095.98;223576;182;138524;-70
2023/03/18 13:05:31;;;;;;;12.60;7.80;;;;;;;20.24;26.29;99087.96;223599;182;136977;-70
2023/03/18 13:10:36;;;;;;;13.00;6.80;;;;;;;20.39;25.12;99080.15;223599;182;147747;-70
2023/03/18 13:15:52;;;;;;;11.40;7.30;;;;;;;20.44;25.03;99078.23;223618;183;139633;-70
2023/03/18 13:20:57;;;;;;;12.10;6.20;;;;;;;20.56;24.42;99075.75;223552;182;136635;-70
2023/03/18 13:26:17;;;;;;;;;;;;;;;20.63;24.00;99074.06;223552;182;284010;-70
2023/03/18 13:31:33;;;;;;;13.80;7.50;;;;;;;20.75;23.19;99067.64;223702;182;138146;-70
2023/03/18 13:36:57;;;;;;;8.60;5.30;;;;;;;20.79;23.68;99064.66;223670;182;137205;-70
2023/03/18 13:42:10;;;;;;;11.30;6.10;;;;;;;20.95;23.78;99054.88;223666;182;147784;-70
2023/03/18 13:47:20;;;;;;;9.10;5.70;;;;;;;20.99;23.98;99048.84;223637;182;138679;-70
2023/03/18 13:52:46;;;;;;;8.30;5.20;;;;;;;20.87;24.16;99047.42;223572;183;137085;-70
2023/03/18 13:58:12;;;;;;;7.80;4.90;;;;;;;20.66;24.42;99046.69;223579;183;147260;-70
2023/03/18 14:03:21;;;;;;;;;;;;;;;20.39;25.11;99043.77;222031;182;139040;-71
2023/03/18 14:08:37;;;;;;;107.20;79.80;;;;;;;19.97;24.81;99037.56;223511;182;131036;-74
2023/03/18 14:13:44;;;;;;;10.50;6.10;;;;;;;19.26;24.67;99035.56;223662;183;147887;-73
2023/03/18 14:18:57;;;;;;;9.40;5.20;;;;;;;18.67;25.21;99034.48;223668;183;138387;-73
2023/03/18 14:24:16;;;;;;;7.60;4.80;;;;;;;18.18;25.81;99030.25;223675;183;136952;-73
2023/03/18 14:29:25;;;;;;;8.60;4.40;;;;;;;17.79;25.95;99031.89;223795;182;147567;-76
2023/03/18 14:34:33;;;;;;;8.20;4.60;;;;;;;17.52;25.79;99031.11;223700;183;138500;-76
2023/03/18 14:39:41;;;;;;;8.50;4.20;;;;;;;17.32;26.04;99030.14;223614;183;136877;-76
2023/03/18 14:44:58;;;;;;;8.80;4.70;;;;;;;17.07;26.48;99026.09;223675;182;147387;-76
2023/03/18 14:50:04;;;;;;;6.40;3.80;;;;;;;16.87;26.82;99023.75;223749;183;141292;-79
2023/03/18 14:55:17;;;;;;;7.10;4.20;;;;;;;16.70;26.68;99022.54;223673;182;137062;-80
2023/03/18 15:00:23;;;;;;;7.80;4.30;;;;;;;16.52;26.83;99026.73;223724;182;147145;-80
2023/03/18 15:05:30;;;;;;;;;;;;;;;16.40;27.12;99025.66;223580;182;138485;-80
2023/03/18 15:10:34;;;;;;;8.70;3.40;;;;;;;16.27;27.53;99021.40;221791;183;132609;-79
2023/03/18 15:15:38;;;;;;;6.80;4.00;;;;;;;16.21;27.62;99021.56;223565;183;147388;-79
2023/03/18 15:20:42;;;;;;;7.90;4.10;;;;;;;16.16;27.67;99022.17;223589;183;138401;-79
2023/03/18 15:25:48;;;;;;;9.90;3.90;;;;;;;16.10;27.97;99016.52;223534;183;137021;-80
2023/03/18 15:30:59;;;;;;;;;;;;;;;16.00;28.56;99021.04;223690;183;146934;-78
2023/03/18 15:36:06;;;;;;;10.80;4.30;;;;;;;15.88;28.65;99019.20;223652;183;138671;-79
2023/03/18 15:41:11;;;;;;;9.40;4.90;;;;;;;15.78;28.88;99014.63;223661;183;137078;-79
2023/03/18 15:46:21;;;;;;;9.90;4.60;;;;;;;15.72;29.34;99017.14;223553;183;147857;-79
2023/03/18 15:51:39;;;;;;;11.10;5.00;;;;;;;15.66;29.40;99019.06;223516;183;139811;-79
2023/03/18 15:56:47;;;;;;;11.50;4.90;;;;;;;15.57;29.92;99019.70;223563;183;137548;-80
2023/03/18 16:01:59;;;;;;;10.10;5.70;;;;;;;15.50;30.49;99022.34;223408;183;147243;-84
2023/03/18 16:07:13;;;;;;;11.20;5.90;;;;;;;15.43;30.70;99030.72;223569;183;138769;-82
2023/03/18 16:12:20;;;;;;;10.80;6.00;;;;;;;15.40;30.21;99033.67;223675;180;137291;-74
2023/03/18 16:17:24;;;;;;;40.20;24.00;;;;;;;15.63;32.44;99034.80;223676;182;147789;-72
2023/03/18 16:22:27;;;;;;;21.30;10.90;;;;;;;16.58;31.87;99035.73;223692;183;138988;-71
2023/03/18 16:27:42;;;;;;;15.00;8.50;;;;;;;17.06;30.70;99040.14;223621;182;137819;-71
2023/03/18 16:32:46;;;;;;;15.50;8.50;;;;;;;17.12;29.80;99038.55;223531;183;149069;-70
2023/03/18 16:37:50;;;;;;;17.80;7.80;;;;;;;17.05;29.49;99041.61;221712;183;138944;-71
2023/03/18 16:42:54;;;;;;;15.40;8.20;;;;;;;16.91;29.23;99041.96;223640;183;137287;-74
2023/03/18 16:48:01;;;;;;;15.30;8.50;;;;;;;16.52;28.63;99039.45;223661;183;147722;-71
2023/03/18 16:53:37;;;;;;;15.10;8.60;;;;;;;16.01;28.93;99044.73;223698;182;141000;-71
2023/03/18 16:58:40;;;;;;;23.50;10.60;;;;;;;15.59;29.51;99044.80;223657;182;137332;-71
2023/03/18 17:03:44;;;;;;;21.10;10.70;;;;;;;15.28;29.71;99046.27;223589;183;147940;-70
2023/03/18 17:08:47;;;;;;;19.10;11.40;;;;;;;15.02;30.13;99045.84;223540;183;139127;-70
2023/03/18 17:13:51;;;;;;;20.10;11.80;;;;;;;14.80;30.56;99051.23;223606;182;137750;-72
2023/03/18 17:18:54;;;;;;;20.80;12.20;;;;;;;14.54;31.51;99051.96;223618;182;146816;-70
2023/03/18 17:23:58;;;;;;;23.60;12.70;;;;;;;14.31;31.59;99055.89;223504;182;139196;-71
2023/03/18 17:29:03;;;;;;;22.80;13.20;;;;;;;14.09;32.08;99053.31;223807;183;137625;-73
2023/03/18 17:34:12;;;;;;;25.10;13.90;;;;;;;13.86;32.49;99056.29;223578;183;148102;-73
2023/03/18 17:39:16;;;;;;;29.60;14.40;;;;;;;13.68;32.51;99056.21;223709;182;138520;-73
2023/03/18 17:44:27;;;;;;;28.30;14.90;;;;;;;13.58;32.29;99056.93;223540;182;137517;-73
2023/03/18 17:49:32;;;;;;;34.40;17.40;;;;;;;13.51;32.08;99059.96;223629;183;146935;-72
2023/03/18 17:54:36;;;;;;;31.00;16.90;;;;;;;13.46;32.29;99060.64;223613;182;138949;-73
2023/03/18 17:59:40;;;;;;;33.90;18.10;;;;;;;13.39;32.76;99057.85;223632;183;137929;-72
2023/03/18 18:04:44;;;;;;;41.50;20.70;;;;;;;13.28;32.83;99057.17;223656;183;146707;-72
2023/03/18 18:09:48;;;;;;;37.80;20.00;;;;;;;13.20;32.93;99060.96;223567;182;138615;-72
2023/03/18 18:14:51;;;;;;;41.40;21.00;;;;;;;13.10;33.25;99053.89;223621;183;137307;-72
2023/03/18 18:19:56;;;;;;;40.40;21.60;;;;;;;12.97;33.51;99058.31;223360;183;148435;-73
2023/03/18 18:25:00;;;;;;;42.80;22.00;;;;;;;12.86;33.94;99055.36;223355;216;138851;-73
2023/03/18 18:30:04;;;;;;;43.60;22.00;;;;;;;12.77;33.89;99053.70;222316;182;137333;-76
2023/03/18 18:35:12;;;;;;;42.90;21.70;;;;;;;12.70;34.12;99056.14;223629;182;146962;-75
2023/03/18 18:40:17;;;;;;;40.20;19.80;;;;;;;12.64;34.11;99058.94;223619;183;139321;-74
2023/03/18 18:45:21;;;;;;;41.50;20.10;;;;;;;12.60;34.08;99063.62;223596;183;137665;-76
2023/03/18 18:50:34;;;;;;;99.30;63.80;;;;;;;12.57;34.10;99064.91;223649;182;147489;-72
2023/03/18 18:55:37;;;;;;;38.40;21.90;;;;;;;12.58;34.49;99071.45;223597;182;138359;-73
2023/03/18 19:00:40;;;;;;;38.40;21.30;;;;;;;12.50;34.21;99066.97;223596;183;137019;-71
2023/03/18 19:05:45;;;;;;;40.40;21.30;;;;;;;12.44;34.26;99075.08;223527;182;148294;-73
2023/03/18 19:10:51;;;;;;;40.30;22.40;;;;;;;12.38;34.48;99077.98;223635;182;138500;-72
2023/03/18 19:16:04;;;;;;;41.80;22.10;;;;;;;12.31;34.77;99079.19;223646;182;138377;-73
2023/03/18 19:21:07;;;;;;;43.90;21.90;;;;;;;12.21;35.02;99083.42;223628;183;147227;-73
2023/03/18 19:26:17;;;;;;;72.60;46.70;;;;;;;12.09;35.84;99082.44;223588;183;138725;-72
2023/03/18 19:31:23;;;;;;;44.70;23.40;;;;;;;12.08;36.22;99086.75;223639;183;137329;-71
2023/03/18 19:36:39;;;;;;;40.10;22.40;;;;;;;12.01;36.72;99087.77;223620;183;148101;-72
2023/03/18 19:41:44;;;;;;;44.00;23.50;;;;;;;11.83;36.73;99086.11;223606;183;139671;-71
2023/03/18 19:46:53;;;;;;;46.80;26.10;;;;;;;11.70;37.36;99093.17;223633;184;139342;-72
2023/03/18 19:51:56;;;;;;;47.40;25.20;;;;;;;11.57;37.42;99094.02;223698;183;147421;-71
2023/03/18 19:57:03;;;;;;;52.10;25.90;;;;;;;11.38;38.84;99096.51;223586;182;138815;-71
2023/03/18 20:02:34;;;;;;;61.50;27.10;;;;;;;11.17;39.69;99099.80;223687;183;137600;-72
2023/03/18 20:07:37;;;;;;;54.00;27.80;;;;;;;10.95;40.46;99106.84;223576;182;147069;-71
2023/03/18 20:12:43;;;;;;;62.00;29.20;;;;;;;10.77;40.86;99109.42;223605;182;138805;-71
2023/03/18 20:17:49;;;;;;;61.40;28.60;;;;;;;10.54;41.79;99110.46;223640;180;137090;-72
2023/03/18 20:22:58;;;;;;;60.20;27.90;;;;;;;10.36;41.90;99117.89;223728;182;148066;-72
2023/03/18 20:28:03;;;;;;;54.10;27.50;;;;;;;10.20;43.01;99122.04;223620;182;138804;-72
2023/03/18 20:33:07;;;;;;;54.20;27.80;;;;;;;10.07;42.89;99122.10;223056;183;138902;-72
2023/03/18 20:38:37;;;;;;;56.50;28.90;;;;;;;9.96;43.63;99126.31;223675;183;147576;-70
2023/03/18 20:43:43;;;;;;;62.30;30.70;;;;;;;9.91;43.04;99126.40;223650;182;139009;-69
2023/03/18 20:48:48;;;;;;;55.80;29.50;;;;;;;9.90;42.95;99126.98;223570;182;137074;-72
2023/03/18 20:53:51;;;;;;;66.60;30.00;;;;;;;9.87;43.89;99134.61;223574;182;148188;-71
2023/03/18 20:58:56;;;;;;;67.00;31.30;;;;;;;9.75;44.20;99137.80;223693;183;138826;-71
2023/03/18 21:04:04;;;;;;;62.50;30.80;;;;;;;9.68;43.18;99140.66;223582;183;136907;-71
2023/03/18 21:09:14;;;;;;;55.50;31.10;;;;;;;9.77;42.64;99143.69;223667;183;147595;-74
2023/03/18 21:14:18;;;;;;;64.60;32.80;;;;;;;9.86;42.22;99145.64;223505;183;138226;-72
2023/03/18 21:19:22;;;;;;;62.00;33.70;;;;;;;9.85;42.96;99147.67;223616;183;136702;-71
2023/03/18 21:24:26;;;;;;;62.10;33.60;;;;;;;9.82;42.56;99149.80;223441;182;146933;-74
2023/03/18 21:29:30;;;;;;;63.60;34.00;;;;;;;9.81;42.72;99151.45;223536;183;139071;-74
2023/03/18 21:34:35;;;;;;;70.80;35.80;;;;;;;9.74;42.62;99156.80;223651;182;137105;-74
2023/03/18 21:39:38;;;;;;;69.90;34.50;;;;;;;9.72;42.41;99157.27;223632;182;147809;-74
2023/03/18 21:44:43;;;;;;;68.60;37.10;;;;;;;9.63;42.86;99160.96;223631;183;138309;-74
2023/03/18 21:49:47;;;;;;;73.60;35.80;;;;;;;9.50;43.60;99162.20;223517;182;137763;-75
2023/03/18 21:54:51;;;;;;;69.20;35.00;;;;;;;9.35;43.89;99164.48;223656;182;147985;-73
2023/03/18 21:59:54;;;;;;;73.60;34.90;;;;;;;9.24;44.54;99160.64;223571;183;138906;-74
2023/03/18 22:05:06;;;;;;;65.10;33.80;;;;;;;9.12;45.29;99160.42;223644;182;136797;-74
2023/03/18 22:10:17;;;;;;;62.90;33.30;;;;;;;8.98;45.93;99165.56;223682;183;147857;-74
2023/03/18 22:15:37;;;;;;;68.60;34.90;;;;;;;8.86;47.10;99163.23;223681;183;138767;-71
2023/03/18 22:20:42;;;;;;;66.80;35.80;;;;;;;8.77;47.48;99162.44;223505;180;137535;-71
2023/03/18 22:25:52;;;;;;;68.20;36.20;;;;;;;8.67;48.13;99163.83;223657;183;148330;-71
2023/03/18 22:30:56;;;;;;;75.50;35.20;;;;;;;8.55;48.59;99165.17;223622;182;138293;-71
2023/03/18 22:36:00;;;;;;;64.00;35.40;;;;;;;8.46;48.92;99174.29;223638;183;137151;-71
2023/03/18 22:41:04;;;;;;;72.30;36.50;;;;;;;8.35;49.23;99173.08;223773;182;147811;-72
2023/03/18 22:46:10;;;;;;;64.50;35.30;;;;;;;8.26;49.19;99175.48;223627;183;139520;-72
2023/03/18 22:51:22;;;;;;;69.50;36.30;;;;;;;8.22;48.68;99176.04;223692;182;137065;-71
2023/03/18 22:56:25;;;;;;;76.90;36.70;;;;;;;8.17;49.69;99178.58;223704;182;148008;-70
2023/03/18 23:01:30;;;;;;;70.10;36.80;;;;;;;8.12;49.61;99185.73;223058;183;139142;-72
2023/03/18 23:06:34;;;;;;;74.70;39.60;;;;;;;8.08;49.73;99188.05;223636;183;136980;-70
2023/03/18 23:11:37;;;;;;;73.70;39.20;;;;;;;8.01;50.14;99187.84;223621;182;148270;-71
2023/03/18 23:16:40;;;;;;;90.90;43.00;;;;;;;7.93;50.30;99194.23;223672;183;139000;-72
2023/03/18 23:21:43;;;;;;;89.10;44.50;;;;;;;7.81;50.68;99196.94;223549;183;137568;-72
2023/03/18 23:26:47;;;;;;;86.10;46.70;;;;;;;7.72;50.98;99200.55;223547;182;147002;-72
2023/03/18 23:31:50;;;;;;;91.20;48.50;;;;;;;7.64;51.20;99202.36;223596;182;140381;-72
2023/03/18 23:36:53;;;;;;;93.20;48.20;;;;;;;7.53;50.87;99201.98;223574;182;137689;-72
2023/03/18 23:41:59;;;;;;;87.10;47.10;;;;;;;7.45;51.36;99196.70;223622;182;148141;-72
2023/03/18 23:47:03;;;;;;;90.90;46.60;;;;;;;7.33;51.97;99199.93;223737;183;138940;-72